Nearby METAR Reports

 

KCOS - Colorado Springs, Colorado, USA
Distance from station: S 6mi, 9km
Updated: 02/21/2018 3:17am
Light snow, Mist, Overcast
Light snow, Mist, Overcast
 Wind from calm
Wind: Calm
Temperature: 7°F , -14°C
Dew Point: 3°F , -16°C
Humidity: 85%
Barometer: 30.16 inHg , 1021.3 hPa
Summary: Light snow, Mist
Clouds: Overcast
Visibility: 1 1/2 miles , 2.4 km
Cloud details: Overcast 1700 ft
2018/02/21 10:17 KCOS 211017Z 00000KT 1 1/2SM -SN BR OVC017 M14/M16 A3016 RMK AO2 P0000 T11391156
KAFF - Usaf Academy/Cos, Colorado, USA
Distance from station: NW 7mi, 12km
Updated: 02/21/2018 3:40am
Overcast
Overcast
 Wind from calm
Wind: Calm
Temperature: 3°F , -16°C
Dew Point: -0°F , -18°C
Humidity: 85%
Barometer: 30.12 inHg , 1020 hPa
Clouds: Overcast
Visibility: 10 miles , 16 km
Cloud details: Mostly cloudy 400 ft
Overcast 1400 ft
2018/02/21 10:40 KAFF 211040Z COR AUTO 00000KT 10SM BKN004 OVC014 M16/M18 A3012 RMK AO2 SLP286 COR 1040
 
KFLY - Co Spngs Meadow, Colorado, USA
Distance from station: ENE 8mi, 13km
Updated: 02/21/2018 3:35am
Light snow, Overcast
Light snow, Overcast
 
Temperature: 5°F , -15°C
Dew Point: 1°F , -17°C
Humidity: 85%
Barometer: 30.12 inHg , 1020 hPa
Summary: Light Snow
Clouds: Overcast
Visibility: 1 mile , 2 km
Cloud details: Overcast 600 ft
2018/02/21 10:35 KFLY 211035Z AUTO 1SM -SN OVC006 M15/M17 A3012 RMK AO2 VIS 1/2V2 1/2 T11531170
KFCS - Fort Carson, Colorado, USA
Distance from station: S 17mi, 27km
Updated: 02/21/2018 3:30am
Overcast
Overcast
 Wind from E
Wind: E 3 mph , 6 km/h
Temperature: 10°F , -12°C
Dew Point: 5°F , -15°C
Humidity: 79%
Barometer: 30.16 inHg , 1021.3 hPa
Clouds: Overcast
Visibility: 10 miles , 16 km
Cloud details: Mostly cloudy 1000 ft
Overcast 2200 ft
2018/02/21 10:30 KFCS 211030Z AUTO 08003KT 10SM BKN010 OVC022 M12/M15 A3016 RMK AO2 SNE20 SLP310 $
 
KMNH - Monument/Elbert, Colorado, USA
Distance from station: N 22mi, 35km
Updated: 02/21/2018 3:30am
Clear
Clear
 Wind from S
Wind: S 12 mph , 19 km/h
Temperature: 3°F , -16°C
Wind Chill: -14°F , -26°C
Dew Point: -0°F , -18°C
Humidity: 85%
Barometer: 30.08 inHg , 1018.6 hPa
Clouds: Clear
Visibility: 10 miles , 16 km
2018/02/21 10:30 KMNH 211030Z AUTO 18010KT 10SM CLR M16/M18 A3008 RMK AO2
K1V6 - Canon City, Colorado, USA
Distance from station: SSW 39mi, 62km
Updated: 02/14/2018 12:50pm
NOT Current
Clear
Clear
 Wind from WSW
Wind: WSW 17 mph , 28 km/h, Gust: 23 mph , 37 km/h
Temperature: 61°F , 16°C
Dew Point: 25°F , -4°C
Humidity: 25%
Barometer: 29.99 inHg , 1015.6 hPa
Clouds: Clear
Visibility: 10 miles , 16 km
2018/02/14 19:50 K1V6 141950Z AUTO 25015G20KT 10SM CLR 16/M04 A2999 RMK AO2
 
KPUB - Pueblo, Colorado, USA
Distance from station: SSE 44mi, 71km
Updated: 02/21/2018 2:53am
Clear
Clear
 Wind from N
Wind: N 3 mph , 6 km/h
Temperature: 9°F , -13°C
Dew Point: 3°F , -16°C
Humidity: 78%
Barometer: 30.24 inHg , 1024 hPa
Clouds: Clear
Visibility: 10 miles , 16 km
2018/02/21 09:53 KPUB 210953Z AUTO 36003KT 10SM CLR M13/M16 A3024 RMK AO2 SLP300 T11281156
KAPA - Denver/Arapahoe, Colorado, USA
Distance from station: N 47mi, 75km
Updated: 02/21/2018 2:53am
Few Clouds
Few Clouds
 Wind from E
Wind: E 3 mph , 6 km/h
Temperature: 3°F , -16°C
Dew Point: 1°F , -17°C
Humidity: 92%
Barometer: 30.12 inHg , 1020 hPa
Clouds: Few Clouds
Visibility: 10 miles , 16 km
Cloud details: Few Clouds 10000 ft
2018/02/21 09:53 KAPA 210953Z 10003KT 10SM FEW100 M16/M17 A3012 RMK AO2 SLP291 T11611172